KSC weather

Košice Airport
Košice, Košice, Slovakia

Public forecast

Using degrees Celsius for public forecast. Weather courtesy of forecast.io.

Current aviation weather report (METAR) for Košice Airport

Retrieved 2020/06/02 02:00 UTC (6 minutes ago):

LZKZ 020200Z 06003KT CAVOK 08/04 Q1013

Aviation forecast (TAF) for Košice Airport

Retrieved 2020-06-02 00:00 UTC (2 hours ago):

TAF LZKZ 012300Z 0200/0300 33007KT CAVOK BECMG 0203/0205 9999 FEW040 BKN060 TEMPO 0205/0216 8000 RA SCT030 BKN045 PROB40 TEMPO 0208/0214 34015G25KT 6000 SHRA BKN030 SCT040TCU BECMG 0215/0217 03005KT